createdAt,value
2019-05-01T00:01:01.628Z,6.10
2019-05-01T00:03:40.623Z,6.10
2019-05-01T00:06:12.063Z,6.00
2019-05-01T00:08:41.910Z,6.00
2019-05-01T00:11:11.669Z,5.90
2019-05-01T00:13:42.122Z,5.80
2019-05-01T00:16:12.066Z,5.80
2019-05-01T00:18:41.872Z,5.90
2019-05-01T00:21:11.971Z,5.90
2019-05-01T00:23:41.856Z,6.00
2019-05-01T00:26:11.998Z,6.10
2019-05-01T00:28:41.749Z,6.10
2019-05-01T00:31:11.920Z,6.10
2019-05-01T00:33:41.669Z,6.20
2019-05-01T00:36:11.423Z,6.30
2019-05-01T00:38:41.458Z,6.30
2019-05-01T00:41:11.207Z,6.50
2019-05-01T00:43:40.994Z,6.70
2019-05-01T00:46:10.740Z,6.80
2019-05-01T00:48:40.748Z,6.90
2019-05-01T00:51:10.514Z,6.90
2019-05-01T00:53:40.544Z,6.90
2019-05-01T00:56:12.231Z,6.90
2019-05-01T00:58:59.896Z,6.90
2019-05-01T01:01:37.210Z,7.00
2019-05-01T01:04:07.160Z,7.10
2019-05-01T01:06:36.908Z,7.30
2019-05-01T01:09:08.095Z,7.50
2019-05-01T01:11:38.352Z,7.60
2019-05-01T01:14:08.291Z,7.60
2019-05-01T01:16:38.051Z,7.70
2019-05-01T01:19:07.799Z,7.60
2019-05-01T01:21:37.559Z,7.50
2019-05-01T01:24:08.347Z,7.40
2019-05-01T01:26:38.615Z,7.30
2019-05-01T01:29:08.356Z,7.40
2019-05-01T01:31:38.351Z,7.40
2019-05-01T01:34:08.049Z,7.40
2019-05-01T01:36:37.824Z,7.30
2019-05-01T01:39:07.760Z,7.50
2019-05-01T01:41:38.948Z,7.40
2019-05-01T01:44:14.454Z,7.40
2019-05-01T01:46:46.728Z,7.50
2019-05-01T01:49:16.748Z,7.50
2019-05-01T01:51:46.903Z,7.60
2019-05-01T01:54:16.662Z,7.80
2019-05-01T01:56:46.707Z,7.90
2019-05-01T01:59:16.984Z,7.80
2019-05-01T02:01:48.669Z,7.90
2019-05-01T02:04:20.048Z,8.00
2019-05-01T02:06:50.714Z,8.00
2019-05-01T02:09:20.499Z,8.10
2019-05-01T02:11:50.328Z,8.00
2019-05-01T02:14:20.061Z,8.00
2019-05-01T02:16:49.805Z,8.00
2019-05-01T02:19:19.554Z,7.90
2019-05-01T02:21:49.354Z,8.00
2019-05-01T02:24:19.089Z,7.90
2019-05-01T02:26:53.571Z,7.90
2019-05-01T02:29:31.237Z,7.80
2019-05-01T02:32:01.711Z,7.90
2019-05-01T02:34:32.841Z,7.80
2019-05-01T02:37:04.468Z,7.80
2019-05-01T02:39:35.774Z,7.80
2019-05-01T02:42:07.054Z,7.80
2019-05-01T02:44:51.856Z,7.90
2019-05-01T02:47:27.103Z,7.80
2019-05-01T02:50:05.930Z,7.80
2019-05-01T02:52:38.123Z,7.80
2019-05-01T02:55:12.694Z,7.70
2019-05-01T02:57:43.592Z,7.70
2019-05-01T03:00:13.634Z,7.70
2019-05-01T03:02:43.467Z,7.70
2019-05-01T03:05:13.241Z,7.70
2019-05-01T03:07:43.687Z,7.70
2019-05-01T03:10:14.404Z,7.70
2019-05-01T03:12:46.855Z,7.70
2019-05-01T03:15:18.540Z,7.60
2019-05-01T03:17:50.654Z,7.60
2019-05-01T03:20:22.103Z,7.60
2019-05-01T03:22:53.516Z,7.50
2019-05-01T03:25:24.008Z,7.50
2019-05-01T03:27:53.967Z,7.50
2019-05-01T03:30:23.821Z,7.50
2019-05-01T03:32:53.569Z,7.50
2019-05-01T03:35:23.392Z,7.60
2019-05-01T03:37:53.367Z,7.60
2019-05-01T03:40:35.159Z,7.70
2019-05-01T03:43:06.007Z,7.80
2019-05-01T03:45:35.758Z,7.90
2019-05-01T03:48:05.522Z,8.00
2019-05-01T03:50:36.468Z,8.00
2019-05-01T03:53:06.433Z,8.10
2019-05-01T03:55:36.909Z,8.00
2019-05-01T03:58:08.552Z,8.10
2019-05-01T04:00:40.623Z,8.20
2019-05-01T04:03:21.665Z,8.40
2019-05-01T04:05:51.835Z,8.50
2019-05-01T04:08:21.785Z,8.60
2019-05-01T04:10:51.633Z,8.70
2019-05-01T04:13:21.458Z,8.90
2019-05-01T04:15:52.844Z,8.90
2019-05-01T04:18:23.340Z,9.00
2019-05-01T04:20:53.370Z,9.00
2019-05-01T04:23:23.317Z,9.10
2019-05-01T04:25:54.077Z,9.20
2019-05-01T04:28:25.542Z,9.10
2019-05-01T04:30:57.668Z,9.30
2019-05-01T04:33:28.998Z,9.20
2019-05-01T04:36:00.332Z,9.10
2019-05-01T04:38:30.477Z,9.10
2019-05-01T04:41:01.017Z,9.00
2019-05-01T04:43:31.903Z,9.00
2019-05-01T04:46:02.187Z,9.00
2019-05-01T04:48:32.485Z,8.90
2019-05-01T04:51:02.477Z,9.00
2019-05-01T04:53:32.404Z,9.10
2019-05-01T04:56:02.454Z,9.10
2019-05-01T04:58:32.302Z,9.10
2019-05-01T05:01:02.948Z,9.10
2019-05-01T05:03:32.705Z,9.20
2019-05-01T05:06:02.844Z,9.10
2019-05-01T05:08:32.603Z,9.10
2019-05-01T05:11:04.125Z,9.20
2019-05-01T05:13:38.328Z,9.30
2019-05-01T05:16:10.942Z,9.60
2019-05-01T05:18:41.004Z,10.10
2019-05-01T05:21:10.791Z,10.40
2019-05-01T05:23:41.443Z,10.80
2019-05-01T05:26:12.091Z,10.90
2019-05-01T05:28:43.679Z,10.90
2019-05-01T05:31:14.010Z,10.70
2019-05-01T05:33:45.624Z,10.30
2019-05-01T05:36:17.674Z,10.10
2019-05-01T05:38:49.183Z,9.80
2019-05-01T05:41:19.933Z,9.60
2019-05-01T05:43:49.776Z,9.60
2019-05-01T05:46:20.027Z,9.50
2019-05-01T05:48:50.018Z,9.50
2019-05-01T05:51:23.789Z,9.40
2019-05-01T05:53:59.819Z,9.30
2019-05-01T05:56:34.053Z,9.30
2019-05-01T05:59:10.446Z,9.30
2019-05-01T06:01:47.043Z,9.40
2019-05-01T06:04:37.164Z,9.50
2019-05-01T06:07:23.630Z,9.60
2019-05-01T06:09:58.224Z,9.70
2019-05-01T06:12:32.588Z,9.80
2019-05-01T06:15:20.332Z,9.90
2019-05-01T06:17:51.861Z,10.00
2019-05-01T06:20:25.997Z,10.40
2019-05-01T06:23:15.713Z,11.40
2019-05-01T06:25:54.162Z,12.50
2019-05-01T06:28:24.687Z,12.70
2019-05-01T06:30:54.401Z,12.70
2019-05-01T06:33:24.355Z,12.50
2019-05-01T06:36:14.331Z,12.20
2019-05-01T06:38:44.879Z,11.70
2019-05-01T06:41:16.361Z,11.70
2019-05-01T06:43:48.888Z,11.80
2019-05-01T06:46:22.085Z,12.00
2019-05-01T06:48:58.622Z,12.30
2019-05-01T06:51:36.297Z,12.20
2019-05-01T06:54:16.131Z,11.90
2019-05-01T06:56:44.523Z,11.60
2019-05-01T06:59:16.252Z,12.00
2019-05-01T07:01:47.389Z,12.20
2019-05-01T07:04:17.417Z,12.10
2019-05-01T07:06:47.271Z,12.10
2019-05-01T07:09:27.307Z,12.30
2019-05-01T07:11:52.738Z,12.50
2019-05-01T07:14:20.407Z,13.30
2019-05-01T07:16:50.159Z,14.00
2019-05-01T07:19:21.945Z,14.60
2019-05-01T07:21:51.692Z,14.70
2019-05-01T07:24:24.108Z,15.20
2019-05-01T07:26:52.832Z,16.10
2019-05-01T07:29:24.151Z,16.00
2019-05-01T07:31:53.897Z,15.20
2019-05-01T07:34:26.215Z,14.70
2019-05-01T07:37:14.496Z,14.20
2019-05-01T07:39:44.813Z,14.00
2019-05-01T07:42:27.168Z,14.30
2019-05-01T07:45:17.873Z,15.00
2019-05-01T07:47:52.364Z,15.60
2019-05-01T07:50:24.315Z,17.00
2019-05-01T07:52:54.068Z,17.00
2019-05-01T07:55:38.936Z,16.80
2019-05-01T07:58:15.791Z,16.50
2019-05-01T08:00:49.131Z,16.60
2019-05-01T08:03:18.915Z,16.90
2019-05-01T08:05:48.663Z,17.10
2019-05-01T08:08:18.408Z,17.80
2019-05-01T08:10:48.375Z,19.20
2019-05-01T08:13:18.127Z,19.30
2019-05-01T08:15:47.922Z,19.00
2019-05-01T08:18:19.224Z,19.60
2019-05-01T08:20:56.676Z,20.40
2019-05-01T08:23:26.398Z,21.00
2019-05-01T08:25:56.225Z,22.40
2019-05-01T08:28:36.752Z,22.10
2019-05-01T08:31:10.567Z,22.50
2019-05-01T08:33:49.372Z,22.90
2019-05-01T08:36:16.213Z,23.20
2019-05-01T08:38:46.322Z,23.10
2019-05-01T08:41:16.064Z,22.80
2019-05-01T08:43:48.845Z,23.30
2019-05-01T08:46:25.336Z,22.90
2019-05-01T08:49:11.336Z,22.70
2019-05-01T08:51:40.184Z,23.70
2019-05-01T08:54:09.947Z,22.90
2019-05-01T08:56:39.695Z,24.90
2019-05-01T08:59:09.529Z,25.30
2019-05-01T09:01:39.295Z,25.00
2019-05-01T09:04:13.078Z,23.80
2019-05-01T09:06:43.821Z,22.80
2019-05-01T09:09:11.759Z,25.00
2019-05-01T09:11:41.499Z,25.20
2019-05-01T09:14:11.249Z,26.00
2019-05-01T09:16:41.023Z,25.70
2019-05-01T09:19:10.868Z,26.50
2019-05-01T09:21:40.659Z,24.70
2019-05-01T09:24:10.390Z,24.60
2019-05-01T09:26:45.467Z,24.00
2019-05-01T09:29:20.253Z,25.60
2019-05-01T09:31:50.659Z,25.50
2019-05-01T09:34:21.105Z,25.80
2019-05-01T09:36:51.091Z,27.10
2019-05-01T09:39:21.246Z,26.00
2019-05-01T09:41:50.994Z,26.60
2019-05-01T09:44:20.761Z,26.60
2019-05-01T09:46:50.708Z,24.30
2019-05-01T09:49:21.272Z,24.10
2019-05-01T09:51:52.581Z,26.60
2019-05-01T09:54:24.930Z,27.20
2019-05-01T09:56:55.622Z,28.00
2019-05-01T09:59:25.362Z,29.10
2019-05-01T10:01:55.152Z,29.70
2019-05-01T10:04:25.295Z,26.90
2019-05-01T10:06:56.281Z,28.40
2019-05-01T10:09:26.923Z,28.80
2019-05-01T10:11:56.798Z,27.20
2019-05-01T10:14:26.545Z,24.90
2019-05-01T10:16:56.307Z,25.70
2019-05-01T10:19:26.069Z,26.80
2019-05-01T10:21:58.011Z,28.00
2019-05-01T10:24:27.528Z,25.70
2019-05-01T10:27:00.114Z,22.80
2019-05-01T10:29:40.799Z,23.70
2019-05-01T10:32:12.124Z,24.60
2019-05-01T10:34:46.224Z,24.60
2019-05-01T10:37:15.948Z,24.50
2019-05-01T10:39:50.073Z,21.60
2019-05-01T10:42:17.091Z,21.30
2019-05-01T10:44:46.923Z,21.90
2019-05-01T10:47:16.685Z,22.40
2019-05-01T10:49:46.437Z,21.40
2019-05-01T10:52:16.202Z,20.70
2019-05-01T10:54:46.577Z,19.80
2019-05-01T10:57:16.387Z,19.80
2019-05-01T10:59:46.187Z,20.50
2019-05-01T11:02:17.576Z,20.40
2019-05-01T11:04:47.339Z,20.10
2019-05-01T11:07:17.065Z,20.30
2019-05-01T11:09:46.922Z,21.00
2019-05-01T11:12:16.827Z,21.00
2019-05-01T11:14:46.581Z,20.60
2019-05-01T11:17:16.318Z,20.40
2019-05-01T11:19:46.067Z,20.30
2019-05-01T11:22:16.535Z,19.80
2019-05-01T11:24:47.291Z,20.00
2019-05-01T11:27:17.035Z,19.70
2019-05-01T11:29:46.810Z,20.00
2019-05-01T11:32:27.103Z,20.10
2019-05-01T11:34:58.495Z,20.10
2019-05-01T11:37:44.963Z,20.20
2019-05-01T11:40:16.592Z,20.00
2019-05-01T11:42:46.339Z,19.80
2019-05-01T11:45:16.195Z,19.80
2019-05-01T11:47:45.944Z,19.80
2019-05-01T11:50:16.752Z,19.30
2019-05-01T11:52:46.471Z,19.00
2019-05-01T11:55:16.287Z,19.10
2019-05-01T11:57:46.079Z,19.30
2019-05-01T12:00:17.931Z,19.30
2019-05-01T12:02:47.692Z,19.50
2019-05-01T12:05:17.444Z,19.40
2019-05-01T12:07:47.254Z,18.60
2019-05-01T12:10:17.500Z,18.60
2019-05-01T12:12:47.255Z,18.80
2019-05-01T12:15:17.463Z,18.80
2019-05-01T12:17:48.392Z,18.60
2019-05-01T12:20:18.931Z,18.80
2019-05-01T12:22:51.252Z,18.90
2019-05-01T12:25:20.212Z,18.70
2019-05-01T12:27:49.952Z,18.60
2019-05-01T12:30:20.303Z,18.60
2019-05-01T12:32:51.067Z,18.40
2019-05-01T12:35:21.238Z,18.40
2019-05-01T12:37:55.260Z,18.10
2019-05-01T12:40:23.984Z,18.20
2019-05-01T12:42:53.765Z,18.40
2019-05-01T12:45:24.642Z,18.70
2019-05-01T12:47:56.245Z,18.60
2019-05-01T12:50:25.994Z,18.20
2019-05-01T12:55:55.499Z,17.50
2019-05-01T12:58:25.268Z,17.50
2019-05-01T13:00:56.097Z,17.70
2019-05-01T13:03:26.127Z,18.00
2019-05-01T13:05:56.351Z,18.10
2019-05-01T13:08:26.132Z,17.70
2019-05-01T13:10:56.269Z,17.90
2019-05-01T13:13:26.008Z,17.80
2019-05-01T13:15:55.755Z,18.20
2019-05-01T13:18:25.498Z,18.50
2019-05-01T13:20:55.271Z,18.60
2019-05-01T13:23:25.008Z,18.80
2019-05-01T13:25:56.443Z,18.70
2019-05-01T13:28:34.002Z,18.30
2019-05-01T13:31:08.427Z,18.20
2019-05-01T13:33:38.164Z,18.00
2019-05-01T13:36:08.023Z,18.00
2019-05-01T13:38:37.782Z,17.80
2019-05-01T13:41:07.523Z,17.50
2019-05-01T13:43:37.492Z,17.30
2019-05-01T13:46:07.241Z,17.20
2019-05-01T13:48:37.010Z,17.50
2019-05-01T13:51:06.759Z,17.70
2019-05-01T13:53:48.496Z,17.60
2019-05-01T13:56:18.233Z,17.20
2019-05-01T13:58:48.269Z,17.50
2019-05-01T14:01:18.336Z,17.70
2019-05-01T14:03:48.083Z,17.60
2019-05-01T14:06:18.760Z,17.30
2019-05-01T14:08:48.493Z,17.20
2019-05-01T14:11:18.243Z,17.30
2019-05-01T14:13:48.003Z,17.10
2019-05-01T14:16:17.736Z,17.10
2019-05-01T14:18:47.532Z,17.00
2019-05-01T14:21:23.011Z,16.90
2019-05-01T14:24:09.115Z,16.80
2019-05-01T14:26:39.859Z,16.70
2019-05-01T14:29:09.641Z,16.80
2019-05-01T14:31:39.709Z,16.80
2019-05-01T14:34:09.462Z,16.60
2019-05-01T14:36:39.200Z,16.60
2019-05-01T14:39:08.950Z,16.60
2019-05-01T14:41:39.340Z,16.80
2019-05-01T14:44:36.541Z,16.90
2019-05-01T14:46:59.750Z,16.80
2019-05-01T14:49:29.490Z,16.90
2019-05-01T14:51:59.239Z,16.80
2019-05-01T14:54:28.995Z,16.90
2019-05-01T14:56:58.759Z,17.00
2019-05-01T14:59:29.440Z,17.20
2019-05-01T15:01:59.130Z,17.30
2019-05-01T15:04:28.890Z,17.10
2019-05-01T15:06:58.716Z,16.90
2019-05-01T15:09:28.444Z,16.80
2019-05-01T15:11:58.204Z,16.80
2019-05-01T15:14:47.696Z,16.70
2019-05-01T15:17:21.977Z,16.60
2019-05-01T15:19:53.281Z,16.60
2019-05-01T15:22:23.114Z,16.60
2019-05-01T15:24:52.812Z,16.70
2019-05-01T15:27:22.571Z,16.90
2019-05-01T15:29:52.314Z,17.00
2019-05-01T15:32:22.052Z,16.90
2019-05-01T15:34:51.855Z,17.00
2019-05-01T15:37:21.668Z,16.90
2019-05-01T15:39:54.052Z,17.00
2019-05-01T15:42:28.068Z,17.30
2019-05-01T15:44:57.847Z,17.40
2019-05-01T15:47:27.591Z,17.70
2019-05-01T15:49:57.348Z,17.60
2019-05-01T15:52:27.084Z,17.30
2019-05-01T15:54:57.935Z,17.40
2019-05-01T15:57:27.700Z,17.30
2019-05-01T15:59:57.449Z,17.40
2019-05-01T16:02:27.240Z,17.00
2019-05-01T16:04:56.985Z,16.80
2019-05-01T16:07:27.722Z,16.70
2019-05-01T16:09:57.448Z,16.50
2019-05-01T16:12:35.044Z,16.50
2019-05-01T16:15:08.460Z,16.40
2019-05-01T16:17:38.234Z,16.30
2019-05-01T16:20:09.542Z,16.40
2019-05-01T16:22:39.329Z,16.30
2019-05-01T16:25:09.374Z,16.10
2019-05-01T16:28:00.179Z,16.10
2019-05-01T16:30:29.908Z,16.10
2019-05-01T16:32:59.732Z,16.10
2019-05-01T16:35:29.461Z,16.00
2019-05-01T16:38:01.733Z,16.10
2019-05-01T16:40:33.024Z,16.00
2019-05-01T16:43:05.486Z,16.00
2019-05-01T16:45:35.324Z,15.90
2019-05-01T16:48:05.475Z,15.80
2019-05-01T16:50:35.216Z,15.80
2019-05-01T16:53:05.276Z,15.80
2019-05-01T16:55:35.092Z,15.70
2019-05-01T16:58:06.545Z,15.70
2019-05-01T17:00:54.267Z,15.50
2019-05-01T17:03:28.064Z,15.50
2019-05-01T17:05:59.756Z,15.40
2019-05-01T17:08:37.234Z,15.30
2019-05-01T17:11:09.186Z,15.10
2019-05-01T17:13:38.933Z,15.10
2019-05-01T17:16:08.675Z,15.00
2019-05-01T17:18:38.416Z,14.80
2019-05-01T17:21:08.556Z,14.50
2019-05-01T17:23:38.334Z,14.40
2019-05-01T17:26:08.389Z,14.30
2019-05-01T17:28:38.248Z,14.10
2019-05-01T17:31:08.019Z,14.00
2019-05-01T17:33:37.742Z,13.90
2019-05-01T17:36:07.533Z,13.70
2019-05-01T17:38:48.975Z,13.70
2019-05-01T17:41:08.736Z,13.60
2019-05-01T17:43:38.576Z,13.50
2019-05-01T17:46:10.679Z,13.30
2019-05-01T17:48:39.736Z,13.00
2019-05-01T17:51:09.483Z,12.50
2019-05-01T17:53:39.252Z,12.30
2019-05-01T17:56:09.935Z,12.20
2019-05-01T17:58:40.418Z,12.10
2019-05-01T18:01:32.929Z,12.10
2019-05-01T18:04:13.176Z,12.00
2019-05-01T18:06:46.667Z,12.10
2019-05-01T18:09:17.497Z,12.10
2019-05-01T18:11:51.604Z,12.00
2019-05-01T18:14:18.639Z,12.00
2019-05-01T18:16:48.381Z,11.90
2019-05-01T18:19:18.108Z,11.70
2019-05-01T18:21:51.916Z,11.40
2019-05-01T18:24:40.690Z,11.20
2019-05-01T18:27:18.943Z,11.10
2019-05-01T18:29:50.647Z,11.00
2019-05-01T18:32:41.722Z,11.00
2019-05-01T18:35:14.259Z,10.80
2019-05-01T18:37:51.201Z,10.70
2019-05-01T18:40:37.550Z,10.50
2019-05-01T18:43:07.316Z,10.30
2019-05-01T18:45:45.993Z,10.40
2019-05-01T18:48:16.448Z,10.40
2019-05-01T18:50:49.491Z,10.30
2019-05-01T18:53:18.601Z,10.20
2019-05-01T18:55:48.453Z,10.50
2019-05-01T18:58:18.507Z,10.60
2019-05-01T19:00:48.268Z,10.70
2019-05-01T19:03:18.013Z,10.60
2019-05-01T19:05:48.242Z,10.60
2019-05-01T19:08:18.341Z,10.80
2019-05-01T19:10:48.259Z,11.00
2019-05-01T19:13:18.489Z,11.10
2019-05-01T19:15:48.273Z,11.20
2019-05-01T19:18:18.039Z,11.40
2019-05-01T19:20:58.810Z,11.60
2019-05-01T19:23:22.256Z,11.60
2019-05-01T19:25:51.192Z,11.70
2019-05-01T19:28:21.499Z,11.70
2019-05-01T19:30:51.365Z,11.80
2019-05-01T19:33:21.242Z,11.80
2019-05-01T19:35:52.079Z,11.90
2019-05-01T19:38:22.174Z,12.00
2019-05-01T19:40:51.929Z,12.20
2019-05-01T19:43:21.650Z,12.30
2019-05-01T19:45:51.426Z,12.40
2019-05-01T19:48:21.563Z,12.40
2019-05-01T19:50:51.728Z,12.50
2019-05-01T19:53:21.858Z,12.50
2019-05-01T19:55:51.571Z,12.40
2019-05-01T19:58:21.319Z,12.40
2019-05-01T20:00:56.471Z,12.40
2019-05-01T20:03:30.710Z,12.40
2019-05-01T20:05:59.476Z,12.20
2019-05-01T20:08:29.874Z,11.80
2019-05-01T20:10:59.662Z,11.20
2019-05-01T20:13:29.418Z,11.00
2019-05-01T20:15:59.172Z,10.70
2019-05-01T20:18:28.915Z,10.60
2019-05-01T20:20:59.051Z,10.50
2019-05-01T20:23:31.539Z,10.40
2019-05-01T20:26:00.523Z,10.30
2019-05-01T20:28:30.302Z,10.30
2019-05-01T20:31:00.067Z,10.30
2019-05-01T20:33:33.386Z,10.30
2019-05-01T20:36:05.183Z,10.30
2019-05-01T20:38:33.563Z,10.30
2019-05-01T20:41:03.310Z,10.40
2019-05-01T20:43:33.571Z,10.30
2019-05-01T20:46:06.718Z,10.30
2019-05-01T20:48:34.997Z,10.30
2019-05-01T20:51:04.884Z,10.30
2019-05-01T20:53:34.644Z,10.30
2019-05-01T20:56:21.148Z,10.30
2019-05-01T20:58:50.884Z,10.30
2019-05-01T21:01:24.353Z,10.40
2019-05-01T21:04:17.916Z,10.30
2019-05-01T21:07:05.457Z,10.40
2019-05-01T21:09:47.409Z,10.30
2019-05-01T21:12:08.163Z,10.30
2019-05-01T21:14:39.040Z,10.40
2019-05-01T21:17:13.787Z,10.30
2019-05-01T21:19:41.195Z,10.30
2019-05-01T21:22:10.924Z,10.20
2019-05-01T21:24:40.703Z,10.20
2019-05-01T21:27:10.444Z,10.30
2019-05-01T21:29:40.573Z,10.20
2019-05-01T21:32:10.373Z,10.20
2019-05-01T21:34:40.105Z,10.20
2019-05-01T21:37:10.899Z,10.20
2019-05-01T21:39:40.633Z,10.20
2019-05-01T21:42:13.567Z,10.10
2019-05-01T21:44:43.509Z,10.10
2019-05-01T21:47:13.887Z,10.10
2019-05-01T21:49:44.761Z,10.10
2019-05-01T21:52:18.036Z,10.10
2019-05-01T21:54:50.195Z,10.00
2019-05-01T21:57:19.200Z,10.00
2019-05-01T21:59:49.027Z,10.00
2019-05-01T22:02:18.760Z,9.90
2019-05-01T22:04:48.522Z,10.00
2019-05-01T22:07:18.265Z,9.90
2019-05-01T22:09:50.420Z,10.00
2019-05-01T22:12:19.457Z,9.90
2019-05-01T22:14:50.755Z,9.80
2019-05-01T22:17:32.112Z,9.80
2019-05-01T22:19:59.413Z,9.80
2019-05-01T22:22:33.377Z,9.70
2019-05-01T22:25:07.909Z,9.70
2019-05-01T22:27:47.848Z,9.60
2019-05-01T22:30:31.759Z,9.60
2019-05-01T22:33:02.193Z,9.50
2019-05-01T22:35:33.499Z,9.50
2019-05-01T22:38:04.889Z,9.40
2019-05-01T22:40:39.204Z,9.40
2019-05-01T22:43:08.980Z,9.40
2019-05-01T22:45:39.814Z,9.40
2019-05-01T22:48:09.569Z,9.40
2019-05-01T22:50:39.310Z,9.50
2019-05-01T22:53:12.945Z,9.50
2019-05-01T22:55:52.427Z,9.60
2019-05-01T22:58:22.172Z,9.50
2019-05-01T23:00:56.500Z,9.60
2019-05-01T23:03:30.866Z,9.60
2019-05-01T23:06:01.949Z,9.60
2019-05-01T23:08:32.010Z,9.60
2019-05-01T23:11:01.725Z,9.60
2019-05-01T23:13:31.803Z,9.70
2019-05-01T23:16:02.737Z,9.70
2019-05-01T23:18:32.481Z,9.70
2019-05-01T23:21:02.200Z,9.70
2019-05-01T23:23:31.973Z,9.70
2019-05-01T23:26:01.722Z,9.70
2019-05-01T23:28:34.930Z,9.70
2019-05-01T23:31:02.842Z,9.70
2019-05-01T23:33:32.593Z,9.70
2019-05-01T23:36:02.344Z,9.70
2019-05-01T23:38:32.425Z,9.80
2019-05-01T23:41:02.210Z,9.70
2019-05-01T23:43:31.951Z,9.70
2019-05-01T23:46:02.058Z,9.80
2019-05-01T23:48:31.812Z,9.70
2019-05-01T23:51:01.572Z,9.70
2019-05-01T23:53:31.357Z,9.70
2019-05-01T23:56:02.028Z,9.70
2019-05-01T23:58:31.970Z,9.70
